< < Back
Terminal Aerodrome Forecast


Current Version              Previous Versions:   1  2  3  4  5  6  7  8  9  

Terminal Aerodrome Forecast

769
FTUS42 KTAE 022324
TAFDHN
TAF
KDHN 022324Z 0300/0324 01004KT P6SM VCSH SCT050 SCT110
     FM030200 33003KT P6SM FEW040
     FM030900 00000KT 5SM BR SCT250
     FM031300 31003KT P6SM SCT250
     FM031800 26008KT P6SM SCT050 BKN250=

Latest METAR

040
SAUS70 KWBC 041200 RRE
MTRDHN
METAR KDHN 041153Z 32005KT 6SM BR CLR 23/22 A3003 RMK AO2 SLP164 70012
T02280217 10239 20228 53010


USA.gov is the U.S. government's official web portal to all federal, state and local government web resources and services.